Time;durP1;ratioP1;P1;durP2;ratioP2;P2;SDS_P1;SDS_P2;PMS_P1;PMS_P2;Temp;Humidity;BMP_temperature;BMP_pressure;BME280_temperature;BME280_humidity;BME280_pressure;Samples;Min_cycle;Max_cycle;Signal;HPM_P1;HPM_P2
2021/08/03 00:00:39;;;;;;;0.33;0.33;;;16.20;99.90;;;;;;5051461;28;20180;-82
2021/08/03 00:03:09;;;;;;;0.20;0.20;;;16.20;99.90;;;;;;5053709;28;20279;-82
2021/08/03 00:05:43;;;;;;;0.13;0.13;;;16.00;99.90;;;;;;5042665;28;20683;-82
2021/08/03 00:08:09;;;;;;;0.30;0.30;;;16.20;99.90;;;;;;5054200;28;20199;-82
2021/08/03 00:10:36;;;;;;;0.13;0.13;;;16.30;99.90;;;;;;5071900;28;20253;-82
2021/08/03 00:13:02;;;;;;;0.90;0.87;;;16.50;99.90;;;;;;5070634;28;20689;-82
2021/08/03 00:15:28;;;;;;;0.43;0.43;;;16.60;99.90;;;;;;5070776;28;20188;-82
2021/08/03 00:17:55;;;;;;;0.20;0.20;;;16.60;99.90;;;;;;5053102;28;20220;-82
2021/08/03 00:20:22;;;;;;;0.30;0.30;;;16.70;99.90;;;;;;5053529;28;20181;-82
2021/08/03 00:22:49;;;;;;;0.20;0.20;;;16.70;99.90;;;;;;5070767;28;20212;-82
2021/08/03 00:25:15;;;;;;;0.30;0.30;;;16.70;99.90;;;;;;5053269;28;20534;-82
2021/08/03 00:27:42;;;;;;;0.37;0.37;;;16.80;99.90;;;;;;5066593;28;20197;-82
2021/08/03 00:30:08;;;;;;;0.10;0.10;;;16.70;99.90;;;;;;5053603;28;20191;-82
2021/08/03 00:32:33;;;;;;;0.13;0.13;;;16.60;99.90;;;;;;5071915;28;20576;-79
2021/08/03 00:34:59;;;;;;;0.30;0.30;;;16.40;99.90;;;;;;5045322;28;20191;-85
2021/08/03 00:37:24;;;;;;;0.20;0.20;;;16.30;99.90;;;;;;5050072;28;20568;-84
2021/08/03 00:39:50;;;;;;;1.43;0.90;;;16.40;99.90;;;;;;5070668;28;20188;-82
2021/08/03 00:42:16;;;;;;;0.10;0.10;;;16.40;99.90;;;;;;5050424;28;20208;-82
2021/08/03 00:44:42;;;;;;;0.20;0.20;;;16.10;99.90;;;;;;5045021;28;20192;-82
2021/08/03 00:47:09;;;;;;;0.67;0.40;;;16.00;99.90;;;;;;5070744;28;20275;-82
2021/08/03 00:49:35;;;;;;;0.10;0.10;;;15.90;99.90;;;;;;5053761;28;20187;-82
2021/08/03 00:52:02;;;;;;;0.20;0.20;;;15.90;99.90;;;;;;5052802;28;20215;-82
2021/08/03 00:54:28;;;;;;;0.23;0.23;;;16.00;99.90;;;;;;5071663;28;20213;-82
2021/08/03 00:56:54;;;;;;;0.10;0.10;;;15.90;99.90;;;;;;5067755;28;20180;-82
2021/08/03 00:59:19;;;;;;;0.20;0.20;;;15.70;99.90;;;;;;5069481;28;20552;-82
2021/08/03 01:01:45;;;;;;;0.10;0.10;;;15.70;99.90;;;;;;5047506;28;20184;-81
2021/08/03 01:04:11;;;;;;;2.40;0.30;;;15.80;99.90;;;;;;5053640;28;20194;-82
2021/08/03 01:06:42;;;;;;;0.40;0.33;;;15.70;99.90;;;;;;5070416;28;20198;-82
2021/08/03 01:09:18;;;;;;;0.20;0.20;;;15.70;99.90;;;;;;5053158;28;20681;-82
2021/08/03 01:11:53;;;;;;;0.40;0.40;;;15.80;99.90;;;;;;5051700;28;20229;-82
2021/08/03 01:14:30;;;;;;;0.40;0.40;;;15.70;99.90;;;;;;5071662;28;20210;-82
2021/08/03 01:17:05;;;;;;;0.27;0.27;;;15.70;99.90;;;;;;5052370;28;20270;-82
2021/08/03 01:19:31;;;;;;;0.20;0.20;;;15.70;99.90;;;;;;5070751;28;20186;-82
2021/08/03 01:22:26;;;;;;;0.23;0.23;;;15.60;99.90;;;;;;5048046;28;20683;-82
2021/08/03 01:25:23;;;;;;;0.20;0.20;;;15.80;99.90;;;;;;5053002;28;20302;-80
2021/08/03 01:28:11;;;;;;;0.30;0.30;;;15.80;99.90;;;;;;5072786;28;20207;-82
2021/08/03 01:30:39;;;;;;;0.70;0.70;;;15.70;99.90;;;;;;5057393;28;20709;-82
2021/08/03 01:33:06;;;;;;;0.30;0.30;;;15.50;99.90;;;;;;5056116;28;20219;-82
2021/08/03 01:35:32;;;;;;;0.20;0.20;;;15.70;99.90;;;;;;5074656;28;20186;-82
2021/08/03 01:38:00;;;;;;;0.23;0.23;;;15.90;99.90;;;;;;5056154;28;20172;-81
2021/08/03 01:40:27;;;;;;;0.30;0.30;;;16.00;99.90;;;;;;5081574;28;20184;-82
2021/08/03 01:42:54;;;;;;;0.20;0.20;;;16.10;99.90;;;;;;5049350;28;20216;-82
2021/08/03 01:45:22;;;;;;;0.20;0.20;;;16.10;99.90;;;;;;5063591;28;20184;-82
2021/08/03 01:47:47;;;;;;;0.30;0.23;;;16.00;99.90;;;;;;5071642;28;20188;-82
2021/08/03 01:50:14;;;;;;;0.33;0.20;;;15.60;99.90;;;;;;5055908;28;20213;-82
2021/08/03 01:52:42;;;;;;;0.10;0.10;;;15.30;99.90;;;;;;5073750;28;20191;-81
2021/08/03 01:55:09;;;;;;;0.10;0.10;;;15.10;99.90;;;;;;5060136;28;20261;-82
2021/08/03 01:57:36;;;;;;;0.17;0.17;;;15.00;99.90;;;;;;5060931;28;20191;-82
2021/08/03 02:00:04;;;;;;;0.67;0.40;;;15.00;99.90;;;;;;5050654;28;20180;-80
2021/08/03 02:02:30;;;;;;;0.10;0.10;;;15.00;99.90;;;;;;5056072;28;20217;-82
2021/08/03 02:04:57;;;;;;;0.20;0.20;;;15.10;99.90;;;;;;5051597;28;20647;-82
2021/08/03 02:07:22;;;;;;;0.10;0.10;;;15.30;99.90;;;;;;5074140;28;20212;-82
2021/08/03 02:09:49;;;;;;;0.10;0.10;;;15.20;99.90;;;;;;5053607;28;20213;-82
2021/08/03 02:12:15;;;;;;;0.17;0.17;;;15.20;99.90;;;;;;5055702;28;20308;-80
2021/08/03 02:14:45;;;;;;;0.30;0.30;;;15.10;99.90;;;;;;5057104;28;20292;-82
2021/08/03 02:17:19;;;;;;;0.10;0.10;;;15.00;99.90;;;;;;5073964;28;20209;-82
2021/08/03 02:19:45;;;;;;;0.20;0.20;;;15.00;99.90;;;;;;5047781;28;20192;-82
2021/08/03 02:22:12;;;;;;;0.30;0.30;;;15.10;99.90;;;;;;5048703;28;20219;-82
2021/08/03 02:24:38;;;;;;;0.10;0.10;;;15.00;99.90;;;;;;5054041;28;20276;-81
2021/08/03 02:27:04;;;;;;;0.20;0.20;;;15.00;99.90;;;;;;5052507;28;20189;-82
2021/08/03 02:29:31;;;;;;;1.07;0.90;;;14.90;99.90;;;;;;5053296;28;20195;-82
2021/08/03 02:32:15;;;;;;;0.30;0.30;;;14.90;99.90;;;;;;5071800;28;20562;-82
2021/08/03 02:34:44;;;;;;;0.10;0.10;;;15.00;99.90;;;;;;5072689;28;20606;-83
2021/08/03 02:37:15;;;;;;;0.20;0.20;;;15.30;99.90;;;;;;5053980;28;20182;-82
2021/08/03 02:39:41;;;;;;;0.20;0.20;;;15.40;99.90;;;;;;5071589;28;20229;-82
2021/08/03 02:42:09;;;;;;;0.10;0.10;;;15.30;99.90;;;;;;5066128;28;20252;-82
2021/08/03 02:44:38;;;;;;;0.23;0.23;;;15.30;99.90;;;;;;5073818;28;20199;-82
2021/08/03 02:47:18;;;;;;;0.20;0.20;;;15.40;99.90;;;;;;5056053;28;20186;-81
2021/08/03 02:49:50;;;;;;;0.20;0.20;;;15.60;99.90;;;;;;5072674;28;20252;-81
2021/08/03 02:52:17;;;;;;;0.30;0.30;;;15.70;99.90;;;;;;5057493;28;20232;-82
2021/08/03 02:54:47;;;;;;;0.23;0.20;;;15.80;99.90;;;;;;5058461;28;20301;-82
2021/08/03 02:57:15;;;;;;;0.33;0.33;;;15.90;99.90;;;;;;5053261;28;20191;-82
2021/08/03 02:59:46;;;;;;;0.10;0.10;;;16.00;99.90;;;;;;5072776;28;20200;-82
2021/08/03 03:02:14;;;;;;;0.20;0.20;;;15.90;99.90;;;;;;5073258;28;20234;-82
2021/08/03 03:04:56;;;;;;;0.30;0.30;;;15.90;99.90;;;;;;5052296;28;20208;-81
2021/08/03 03:07:39;;;;;;;0.30;0.30;;;16.10;99.90;;;;;;5063573;28;20787;-82
2021/08/03 03:10:12;;;;;;;0.00;0.00;;;15.80;99.90;;;;;;5072667;28;20195;-82
2021/08/03 03:12:40;;;;;;;0.17;0.17;;;16.00;99.90;;;;;;5054735;28;20574;-82
2021/08/03 03:15:06;;;;;;;0.10;0.10;;;16.00;99.90;;;;;;5054302;28;20186;-82
2021/08/03 03:17:35;;;;;;;0.10;0.10;;;15.60;99.90;;;;;;5056111;28;20195;-82
2021/08/03 03:20:03;;;;;;;0.20;0.20;;;15.40;99.90;;;;;;5054418;28;20304;-81
2021/08/03 03:22:32;;;;;;;1.13;0.50;;;15.30;99.90;;;;;;5072862;28;20242;-82
2021/08/03 03:24:58;;;;;;;0.23;0.23;;;15.10;99.90;;;;;;5054284;28;20221;-82
2021/08/03 03:27:26;;;;;;;1.13;0.53;;;15.10;99.90;;;;;;5054446;28;20184;-82
2021/08/03 03:29:52;;;;;;;0.27;0.27;;;15.00;99.90;;;;;;5073470;28;20175;-82
2021/08/03 03:32:19;;;;;;;0.20;0.20;;;15.10;99.90;;;;;;5072817;28;20208;-82
2021/08/03 03:34:45;;;;;;;0.70;0.37;;;15.10;99.90;;;;;;5072655;28;20280;-81
2021/08/03 03:37:12;;;;;;;0.37;0.30;;;15.10;99.90;;;;;;5053299;28;20194;-82
2021/08/03 03:39:39;;;;;;;0.97;0.90;;;15.00;99.90;;;;;;5080028;28;20691;-82
2021/08/03 03:42:06;;;;;;;0.43;0.43;;;15.00;99.90;;;;;;5055536;28;20208;-80
2021/08/03 03:44:33;;;;;;;1.17;0.40;;;14.90;99.90;;;;;;5073561;28;20174;-82
2021/08/03 03:47:04;;;;;;;0.30;0.30;;;15.00;99.90;;;;;;5070912;28;20186;-82
2021/08/03 03:49:54;;;;;;;0.40;0.40;;;14.90;99.90;;;;;;5069959;28;20545;-82
2021/08/03 03:52:22;;;;;;;0.47;0.47;;;15.00;99.90;;;;;;5069648;28;20202;-82
2021/08/03 03:54:53;;;;;;;0.30;0.30;;;15.00;99.90;;;;;;5058406;28;20282;-82
2021/08/03 03:57:20;;;;;;;1.70;0.87;;;14.90;99.90;;;;;;5068436;28;20613;-80
2021/08/03 03:59:46;;;;;;;0.53;0.53;;;14.80;99.90;;;;;;5054242;28;20220;-82
2021/08/03 04:02:14;;;;;;;0.83;0.80;;;14.80;99.90;;;;;;5054506;28;20202;-82
2021/08/03 04:04:41;;;;;;;0.80;0.73;;;14.80;99.90;;;;;;5049300;28;20270;-84
2021/08/03 04:07:07;;;;;;;0.47;0.47;;;14.70;99.90;;;;;;5052738;28;20231;-85
2021/08/03 04:09:33;;;;;;;0.70;0.67;;;14.70;99.90;;;;;;5064527;28;20195;-82
2021/08/03 04:11:59;;;;;;;0.40;0.40;;;14.90;99.90;;;;;;5067118;28;20574;-82
2021/08/03 04:14:27;;;;;;;0.27;0.27;;;15.00;99.90;;;;;;5070780;28;20266;-82
2021/08/03 04:16:54;;;;;;;0.57;0.57;;;15.00;99.90;;;;;;5062717;28;20649;-82
2021/08/03 04:19:20;;;;;;;2.57;0.47;;;15.20;99.90;;;;;;5071396;28;20191;-80
2021/08/03 04:21:46;;;;;;;0.20;0.20;;;15.50;99.90;;;;;;5051643;28;20193;-82
2021/08/03 04:24:12;;;;;;;0.40;0.40;;;15.70;99.90;;;;;;5052107;28;20238;-82
2021/08/03 04:26:38;;;;;;;0.30;0.30;;;15.70;99.90;;;;;;5052925;28;20173;-82
2021/08/03 04:29:04;;;;;;;0.33;0.30;;;15.90;99.90;;;;;;5051024;28;20556;-81
2021/08/03 04:31:29;;;;;;;0.40;0.40;;;16.00;99.90;;;;;;5053522;28;20237;-83
2021/08/03 04:33:55;;;;;;;0.60;0.53;;;16.00;99.90;;;;;;5052441;28;20207;-83
2021/08/03 04:36:21;;;;;;;2.27;1.40;;;15.60;99.90;;;;;;5049369;28;20652;-82
2021/08/03 04:38:46;;;;;;;0.70;0.60;;;15.40;99.90;;;;;;5050391;28;20265;-83
2021/08/03 04:41:12;;;;;;;0.33;0.33;;;15.40;99.90;;;;;;5052884;28;20203;-81
2021/08/03 04:43:41;;;;;;;0.20;0.20;;;15.50;99.90;;;;;;5052204;28;20202;-82
2021/08/03 04:46:08;;;;;;;0.47;0.47;;;15.60;99.90;;;;;;5052991;28;20183;-83
2021/08/03 04:48:33;;;;;;;0.20;0.20;;;15.80;99.90;;;;;;5050443;28;20251;-84
2021/08/03 04:50:59;;;;;;;0.40;0.40;;;16.00;99.90;;;;;;5069676;28;20191;-85
2021/08/03 04:53:24;;;;;;;1.63;0.33;;;16.20;99.90;;;;;;5057855;28;20223;-85
2021/08/03 04:55:50;;;;;;;1.13;0.50;;;16.30;99.90;;;;;;5056735;28;20245;-82
2021/08/03 04:58:15;;;;;;;0.40;0.40;;;16.40;99.90;;;;;;5068814;28;20206;-82
2021/08/03 05:00:41;;;;;;;0.40;0.33;;;16.40;99.90;;;;;;5049119;28;20301;-82
2021/08/03 05:03:07;;;;;;;0.30;0.30;;;16.00;99.90;;;;;;5051862;28;20243;-82
2021/08/03 05:05:33;;;;;;;0.47;0.47;;;16.00;99.90;;;;;;5070434;28;20275;-82
2021/08/03 05:08:00;;;;;;;0.80;0.80;;;15.70;99.90;;;;;;5058209;28;20284;-82
2021/08/03 05:10:27;;;;;;;0.27;0.27;;;15.90;99.90;;;;;;5052469;28;20187;-83
2021/08/03 05:12:53;;;;;;;0.30;0.30;;;16.00;99.90;;;;;;5051078;28;20217;-83
2021/08/03 05:15:19;;;;;;;0.23;0.23;;;16.30;99.90;;;;;;5050459;28;20183;-82
2021/08/03 05:17:44;;;;;;;0.70;0.70;;;16.40;99.90;;;;;;5068130;28;20217;-80
2021/08/03 05:20:11;;;;;;;0.57;0.57;;;16.20;99.90;;;;;;5072228;28;20185;-82
2021/08/03 05:22:37;;;;;;;0.67;0.57;;;15.80;99.90;;;;;;5066509;28;20722;-84
2021/08/03 05:25:03;;;;;;;0.20;0.20;;;15.90;99.90;;;;;;5053222;28;20182;-83
2021/08/03 05:27:28;;;;;;;1.17;0.53;;;16.20;99.90;;;;;;5051820;28;20178;-83
2021/08/03 05:29:54;;;;;;;0.90;0.53;;;16.00;99.90;;;;;;5062019;28;20199;-82
2021/08/03 05:32:20;;;;;;;0.60;0.30;;;16.30;99.90;;;;;;5065844;28;20259;-80
2021/08/03 05:34:45;;;;;;;4.10;0.77;;;16.40;99.90;;;;;;5049920;28;20253;-82
2021/08/03 05:37:11;;;;;;;0.30;0.30;;;16.60;99.90;;;;;;5040675;28;20261;-81
2021/08/03 05:39:37;;;;;;;0.70;0.70;;;16.60;99.90;;;;;;5051210;28;20196;-82
2021/08/03 05:42:03;;;;;;;1.10;0.83;;;16.80;99.90;;;;;;5049347;28;20224;-82
2021/08/03 05:44:29;;;;;;;0.30;0.30;;;16.60;99.90;;;;;;5054095;28;20564;-82
2021/08/03 05:46:54;;;;;;;0.60;0.60;;;16.80;99.90;;;;;;5068482;28;20203;-83
2021/08/03 05:49:20;;;;;;;2.10;0.90;;;16.60;99.90;;;;;;5066179;28;20187;-82
2021/08/03 05:51:46;;;;;;;0.77;0.70;;;16.50;99.90;;;;;;5068685;28;20588;-83
2021/08/03 05:54:11;;;;;;;1.10;0.80;;;16.50;99.90;;;;;;5049872;28;20220;-81
2021/08/03 05:56:38;;;;;;;1.47;0.90;;;16.50;99.90;;;;;;5045708;28;20315;-83
2021/08/03 05:59:04;;;;;;;0.30;0.30;;;16.70;99.90;;;;;;5046022;28;20218;-80
2021/08/03 06:01:30;;;;;;;0.20;0.20;;;16.70;99.90;;;;;;5048888;28;20227;-83
2021/08/03 06:03:55;;;;;;;0.80;0.80;;;17.10;99.90;;;;;;5051432;28;20212;-83
2021/08/03 06:06:22;;;;;;;1.97;1.00;;;17.30;99.90;;;;;;5050762;28;20306;-83
2021/08/03 06:08:48;;;;;;;1.27;1.17;;;16.90;99.90;;;;;;5051778;28;20208;-83
2021/08/03 06:11:17;;;;;;;1.90;1.03;;;17.00;99.90;;;;;;5068166;28;20280;-82
2021/08/03 06:13:47;;;;;;;1.40;1.30;;;17.00;99.90;;;;;;5052292;28;20568;-82
2021/08/03 06:16:19;;;;;;;0.63;0.63;;;17.40;99.90;;;;;;5055729;28;20268;-83
2021/08/03 06:18:46;;;;;;;0.60;0.60;;;17.80;99.90;;;;;;5067904;28;20185;-83
2021/08/03 06:21:13;;;;;;;1.43;1.33;;;18.10;99.90;;;;;;5071630;28;20611;-84
2021/08/03 06:23:41;;;;;;;1.30;0.80;;;18.20;99.90;;;;;;5072508;28;20236;-84
2021/08/03 06:26:08;;;;;;;1.60;0.93;;;18.40;99.90;;;;;;5054108;28;20193;-85
2021/08/03 06:28:35;;;;;;;0.90;0.90;;;18.60;99.90;;;;;;5050935;28;20196;-84
2021/08/03 06:31:02;;;;;;;2.30;1.30;;;18.70;99.90;;;;;;5065017;28;20189;-83
2021/08/03 06:33:28;;;;;;;1.50;0.93;;;18.40;99.90;;;;;;5068356;28;20305;-84
2021/08/03 06:35:54;;;;;;;2.20;1.47;;;17.90;99.90;;;;;;5069852;28;20228;-84
2021/08/03 06:38:20;;;;;;;0.83;0.83;;;18.10;99.90;;;;;;5054954;28;20189;-82
2021/08/03 06:41:00;;;;;;;1.03;0.50;;;18.00;99.90;;;;;;5072792;28;20201;-83
2021/08/03 06:43:28;;;;;;;0.70;0.70;;;18.10;99.90;;;;;;5052041;28;20212;-84
2021/08/03 06:46:00;;;;;;;0.80;0.77;;;18.30;99.90;;;;;;5055421;28;20194;-84
2021/08/03 06:48:29;;;;;;;0.53;0.53;;;18.30;99.90;;;;;;5071591;28;20224;-83
2021/08/03 06:51:03;;;;;;;0.20;0.20;;;18.30;99.90;;;;;;5073857;28;20898;-84
2021/08/03 06:53:29;;;;;;;0.50;0.50;;;18.50;99.90;;;;;;5056805;28;20220;-83
2021/08/03 06:55:57;;;;;;;0.40;0.40;;;18.70;99.90;;;;;;5052663;28;20203;-82
2021/08/03 06:58:47;;;;;;;0.77;0.77;;;18.70;99.90;;;;;;5053880;28;20203;-85
2021/08/03 07:01:18;;;;;;;1.87;1.77;;;18.20;99.90;;;;;;5066195;28;20187;-84
2021/08/03 07:03:48;;;;;;;0.63;0.63;;;18.20;99.90;;;;;;5065962;28;20323;-85
2021/08/03 07:06:17;;;;;;;1.70;0.87;;;18.10;99.90;;;;;;5070276;28;20215;-85
2021/08/03 07:08:44;;;;;;;0.87;0.70;;;18.40;99.90;;;;;;5078307;28;20200;-85
2021/08/03 07:11:10;;;;;;;0.57;0.57;;;18.80;99.90;;;;;;5051457;28;20280;-85
2021/08/03 07:13:38;;;;;;;1.60;1.27;;;19.00;99.90;;;;;;5054460;28;20224;-86
2021/08/03 07:16:04;;;;;;;1.50;1.10;;;18.80;99.90;;;;;;5051829;28;20192;-86
2021/08/03 07:18:30;;;;;;;0.93;0.57;;;18.50;99.90;;;;;;5047414;28;20193;-86
2021/08/03 07:20:56;;;;;;;0.50;0.50;;;18.50;99.90;;;;;;5066226;28;20857;-86
2021/08/03 07:23:22;;;;;;;4.13;0.67;;;18.80;99.90;;;;;;5058764;28;20205;-85
2021/08/03 07:25:50;;;;;;;0.67;0.67;;;18.50;99.90;;;;;;5052115;28;20193;-86
2021/08/03 07:28:17;;;;;;;1.53;1.43;;;18.70;99.90;;;;;;5048683;28;20603;-85
2021/08/03 07:30:43;;;;;;;1.80;0.77;;;18.50;99.90;;;;;;5050454;28;20222;-84
2021/08/03 07:33:15;;;;;;;1.23;1.17;;;18.40;99.90;;;;;;5069608;28;20253;-86
2021/08/03 07:35:42;;;;;;;1.67;0.90;;;18.70;99.90;;;;;;5052009;28;20596;-85
2021/08/03 07:38:09;;;;;;;1.00;0.60;;;19.00;99.90;;;;;;5054307;28;20653;-86
2021/08/03 07:40:36;;;;;;;0.50;0.50;;;19.00;99.90;;;;;;5053840;28;20373;-86
2021/08/03 07:43:02;;;;;;;0.63;0.63;;;19.10;99.90;;;;;;5072269;28;20261;-85
2021/08/03 07:45:28;;;;;;;0.40;0.40;;;19.20;99.90;;;;;;5053721;28;20683;-85
2021/08/03 07:47:54;;;;;;;1.10;1.07;;;19.10;99.90;;;;;;5054452;28;20215;-86
2021/08/03 07:50:19;;;;;;;0.67;0.60;;;19.10;99.90;;;;;;5052945;28;20526;-84
2021/08/03 07:52:45;;;;;;;3.63;3.17;;;19.10;99.90;;;;;;5048982;28;20201;-86
2021/08/03 07:55:11;;;;;;;0.77;0.60;;;19.00;99.90;;;;;;5049452;28;20689;-86
2021/08/03 07:57:36;;;;;;;0.90;0.87;;;19.10;99.90;;;;;;5068499;28;20189;-86
2021/08/03 08:00:02;;;;;;;0.63;0.63;;;19.20;99.90;;;;;;5054072;28;20188;-84
2021/08/03 08:02:28;;;;;;;1.17;0.77;;;19.30;99.90;;;;;;5048242;28;20209;-86
2021/08/03 08:04:54;;;;;;;0.77;0.63;;;19.40;99.90;;;;;;5066686;28;20187;-84
2021/08/03 08:07:19;;;;;;;0.60;0.60;;;19.30;99.90;;;;;;5050047;28;20176;-85
2021/08/03 08:09:45;;;;;;;0.33;0.33;;;19.30;99.90;;;;;;5067309;28;20254;-86
2021/08/03 08:12:10;;;;;;;0.60;0.60;;;19.30;99.90;;;;;;5057144;28;20266;-86
2021/08/03 08:14:36;;;;;;;0.60;0.60;;;19.40;99.90;;;;;;5063450;28;20221;-84
2021/08/03 08:17:02;;;;;;;0.83;0.63;;;19.60;99.90;;;;;;5052460;28;20281;-86
2021/08/03 08:19:27;;;;;;;0.80;0.70;;;19.60;99.90;;;;;;5051608;28;20181;-86
2021/08/03 08:21:53;;;;;;;0.50;0.50;;;19.80;99.90;;;;;;5051793;28;20189;-86
2021/08/03 08:24:19;;;;;;;1.13;1.03;;;20.00;99.90;;;;;;5066323;28;20695;-86
2021/08/03 08:26:46;;;;;;;0.23;0.20;;;20.00;99.90;;;;;;5050532;28;20653;-84
2021/08/03 08:29:16;;;;;;;0.57;0.40;;;19.90;99.90;;;;;;5056781;28;20186;-84
2021/08/03 08:31:42;;;;;;;0.17;0.17;;;19.80;99.90;;;;;;5070348;28;20186;-84
2021/08/03 08:34:08;;;;;;;0.43;0.43;;;19.70;99.90;;;;;;5048222;28;20296;-85
2021/08/03 08:36:34;;;;;;;0.60;0.60;;;19.90;99.90;;;;;;5050590;28;20660;-83
2021/08/03 08:39:00;;;;;;;0.40;0.27;;;19.90;99.90;;;;;;5050349;28;20186;-81
2021/08/03 08:41:26;;;;;;;0.30;0.30;;;20.00;99.90;;;;;;5051557;28;20177;-83
2021/08/03 08:43:52;;;;;;;0.10;0.10;;;20.10;99.90;;;;;;5065488;28;20287;-84
2021/08/03 08:46:18;;;;;;;0.30;0.30;;;20.30;99.90;;;;;;5054462;28;20268;-84
2021/08/03 08:48:45;;;;;;;0.40;0.40;;;20.30;99.90;;;;;;5068153;28;20624;-83
2021/08/03 08:51:11;;;;;;;0.27;0.27;;;20.30;99.90;;;;;;5052559;28;20596;-84
2021/08/03 08:53:37;;;;;;;0.63;0.63;;;20.30;99.90;;;;;;5054829;28;20213;-84
2021/08/03 08:56:04;;;;;;;0.43;0.43;;;20.30;99.90;;;;;;5050911;28;20651;-84
2021/08/03 08:58:34;;;;;;;0.40;0.30;;;20.10;99.90;;;;;;5069348;28;20177;-83
2021/08/03 09:01:00;;;;;;;0.10;0.10;;;20.20;99.90;;;;;;5051464;28;20566;-83
2021/08/03 09:03:26;;;;;;;0.23;0.23;;;20.30;99.90;;;;;;5073355;28;20613;-84
2021/08/03 09:06:01;;;;;;;0.20;0.20;;;20.30;99.90;;;;;;5051735;28;20197;-83
2021/08/03 09:08:59;;;;;;;0.10;0.10;;;20.40;99.90;;;;;;5051411;28;20185;-82
2021/08/03 09:11:25;;;;;;;0.20;0.20;;;20.30;99.90;;;;;;5052085;28;20568;-84
2021/08/03 09:13:54;;;;;;;0.20;0.20;;;20.30;99.90;;;;;;5051468;28;20268;-83
2021/08/03 09:16:21;;;;;;;0.17;0.17;;;20.20;99.90;;;;;;5050590;28;20185;-85
2021/08/03 09:18:48;;;;;;;0.30;0.30;;;20.20;99.90;;;;;;5052307;28;20230;-85
2021/08/03 09:21:25;;;;;;;0.20;0.20;;;20.10;99.90;;;;;;5070655;28;20590;-86
2021/08/03 09:23:53;;;;;;;0.13;0.13;;;20.10;99.90;;;;;;5052512;28;20200;-84
2021/08/03 09:26:40;;;;;;;0.20;0.20;;;20.10;99.90;;;;;;5071505;28;20173;-86
2021/08/03 09:29:09;;;;;;;0.40;0.40;;;20.20;99.90;;;;;;5050726;28;20196;-85
2021/08/03 09:31:36;;;;;;;0.30;0.30;;;20.20;99.90;;;;;;5045927;28;20188;-85
2021/08/03 09:34:13;;;;;;;0.30;0.30;;;20.10;99.90;;;;;;5059559;28;20209;-85
2021/08/03 09:36:52;;;;;;;0.20;0.20;;;20.10;99.90;;;;;;5049797;28;20189;-85
2021/08/03 09:39:33;;;;;;;0.27;0.27;;;20.20;99.90;;;;;;5049862;28;20181;-86
2021/08/03 09:41:59;;;;;;;0.67;0.30;;;20.10;99.90;;;;;;5037883;28;20679;-85
2021/08/03 09:44:24;;;;;;;0.10;0.10;;;20.20;99.90;;;;;;5060984;28;20260;-85
2021/08/03 09:46:56;;;;;;;0.23;0.23;;;20.10;99.90;;;;;;5049659;28;20181;-86
2021/08/03 09:49:33;;;;;;;0.30;0.30;;;20.10;99.90;;;;;;5054600;28;20181;-85
2021/08/03 09:52:10;;;;;;;0.20;0.20;;;20.10;99.90;;;;;;5057214;28;20759;-84
2021/08/03 09:54:36;;;;;;;0.50;0.50;;;20.20;99.90;;;;;;5051044;28;20209;-85
2021/08/03 09:57:04;;;;;;;0.10;0.10;;;20.00;99.90;;;;;;5054694;28;20753;-85
2021/08/03 09:59:37;;;;;;;0.20;0.20;;;20.00;99.90;;;;;;5053377;28;20268;-85
2021/08/03 10:02:04;;;;;;;0.10;0.10;;;19.80;99.90;;;;;;5051139;28;20271;-84
2021/08/03 10:04:32;;;;;;;0.30;0.30;;;19.80;99.90;;;;;;5052671;28;20184;-84
2021/08/03 10:06:58;;;;;;;0.20;0.20;;;19.70;99.90;;;;;;5072982;28;20190;-84
2021/08/03 10:09:25;;;;;;;0.20;0.20;;;19.60;99.90;;;;;;5072374;28;20191;-83
2021/08/03 10:11:54;;;;;;;0.13;0.13;;;19.50;99.90;;;;;;5053981;28;20203;-82
2021/08/03 10:14:21;;;;;;;0.20;0.20;;;19.50;99.90;;;;;;5069073;28;20213;-82
2021/08/03 10:16:47;;;;;;;0.20;0.20;;;19.50;99.90;;;;;;5055185;28;20553;-83
2021/08/03 10:19:19;;;;;;;0.20;0.20;;;19.60;99.90;;;;;;5054303;28;20181;-83
2021/08/03 10:21:47;;;;;;;0.33;0.33;;;19.70;99.90;;;;;;5052364;28;20177;-83
2021/08/03 10:24:22;;;;;;;0.10;0.10;;;19.70;99.90;;;;;;5067741;28;20189;-82
2021/08/03 10:27:13;;;;;;;0.10;0.10;;;19.60;99.90;;;;;;5068477;28;20709;-84
2021/08/03 10:29:51;;;;;;;0.10;0.10;;;19.80;99.90;;;;;;5050735;28;20623;-84
2021/08/03 10:32:35;;;;;;;0.10;0.10;;;19.70;99.90;;;;;;5071463;28;20259;-82
2021/08/03 10:35:01;;;;;;;0.10;0.10;;;19.60;99.90;;;;;;5067100;28;20308;-82
2021/08/03 10:37:58;;;;;;;0.27;0.27;;;19.60;99.90;;;;;;5052287;28;20200;-82
2021/08/03 10:40:46;;;;;;;0.10;0.10;;;19.50;99.90;;;;;;5049898;28;20190;-83
2021/08/03 10:43:25;;;;;;;0.23;0.20;;;19.70;99.90;;;;;;5064620;28;20866;-83
2021/08/03 10:46:06;;;;;;;0.37;0.37;;;20.10;99.90;;;;;;5057721;28;20567;-83
2021/08/03 10:48:38;;;;;;;0.23;0.23;;;20.50;99.90;;;;;;5070946;28;20235;-83
2021/08/03 10:51:15;;;;;;;0.10;0.10;;;20.80;99.90;;;;;;5055325;28;20186;-83
2021/08/03 10:54:00;;;;;;;0.10;0.10;;;21.00;99.90;;;;;;5070639;28;20238;-83
2021/08/03 10:56:25;;;;;;;0.20;0.20;;;21.00;99.90;;;;;;5072546;28;20189;-83
2021/08/03 10:59:30;;;;;;;0.30;0.30;;;21.10;99.90;;;;;;5054519;28;20191;-83
2021/08/03 11:01:55;;;;;;;0.17;0.17;;;21.30;99.90;;;;;;5071608;28;20190;-83
2021/08/03 11:04:48;;;;;;;0.37;0.37;;;21.30;99.90;;;;;;5055593;28;20188;-83
2021/08/03 11:07:36;;;;;;;0.10;0.10;;;21.40;99.90;;;;;;5050193;28;20193;-83
2021/08/03 11:10:14;;;;;;;0.10;0.10;;;21.40;99.90;;;;;;5071301;28;20695;-83
2021/08/03 11:12:48;;;;;;;0.30;0.30;;;21.10;99.90;;;;;;5048220;28;20227;-83
2021/08/03 11:15:24;;;;;;;0.53;0.30;;;21.00;99.90;;;;;;5053398;28;20673;-83
2021/08/03 11:17:59;;;;;;;0.20;0.20;;;20.50;99.90;;;;;;5073552;28;20249;-82
2021/08/03 11:20:34;;;;;;;0.47;0.30;;;20.40;99.90;;;;;;5055918;28;20181;-83
2021/08/03 11:23:04;;;;;;;0.23;0.23;;;20.40;99.90;;;;;;5057590;28;20343;-83
2021/08/03 11:25:30;;;;;;;0.30;0.30;;;20.70;99.90;;;;;;5051211;28;20205;-85
2021/08/03 11:28:06;;;;;;;0.10;0.10;;;20.80;99.90;;;;;;5053426;28;20185;-85
2021/08/03 11:30:32;;;;;;;0.20;0.20;;;21.10;99.90;;;;;;5051066;28;20424;-83
2021/08/03 11:32:57;;;;;;;0.10;0.10;;;21.30;99.90;;;;;;5070439;28;20201;-83
2021/08/03 11:35:30;;;;;;;0.20;0.20;;;21.70;99.90;;;;;;5054194;28;20307;-84
2021/08/03 11:38:02;;;;;;;0.20;0.20;;;21.90;99.90;;;;;;5051759;28;20645;-83
2021/08/03 11:40:28;;;;;;;0.20;0.20;;;22.30;99.90;;;;;;5076827;28;20669;-84
2021/08/03 11:42:57;;;;;;;0.40;0.40;;;22.40;99.90;;;;;;5053697;28;20267;-85
2021/08/03 11:45:23;;;;;;;0.10;0.10;;;22.80;99.90;;;;;;5070380;28;20203;-84
2021/08/03 11:47:50;;;;;;;0.30;0.30;;;23.10;99.90;;;;;;5071612;28;20181;-84
2021/08/03 11:50:28;;;;;;;0.10;0.10;;;23.40;99.90;;;;;;5053892;28;20192;-85
2021/08/03 11:52:55;;;;;;;0.40;0.40;;;23.30;99.90;;;;;;5070936;28;20237;-84
2021/08/03 11:55:20;;;;;;;0.20;0.20;;;23.30;99.90;;;;;;5055917;28;20209;-82
2021/08/03 11:57:49;;;;;;;0.20;0.20;;;23.50;99.90;;;;;;5071306;28;20239;-82
2021/08/03 12:00:20;;;;;;;0.20;0.20;;;23.70;99.90;;;;;;5052981;28;20311;-82
2021/08/03 12:02:49;;;;;;;0.20;0.20;;;23.70;99.90;;;;;;5054049;28;20208;-83
2021/08/03 12:05:21;;;;;;;0.17;0.17;;;23.70;99.90;;;;;;5070834;28;20242;-81
2021/08/03 12:07:48;;;;;;;0.20;0.20;;;23.10;99.90;;;;;;5057380;28;20192;-81
2021/08/03 12:10:14;;;;;;;0.20;0.20;;;23.10;99.90;;;;;;5063024;28;20177;-82
2021/08/03 12:12:44;;;;;;;0.20;0.20;;;22.90;99.90;;;;;;5071975;28;20628;-82
2021/08/03 12:15:13;;;;;;;0.20;0.20;;;22.70;99.90;;;;;;5053371;28;20217;-82
2021/08/03 12:17:39;;;;;;;0.10;0.10;;;22.40;99.90;;;;;;5070099;28;20176;-82
2021/08/03 12:20:30;;;;;;;0.20;0.20;;;22.30;99.90;;;;;;5061792;28;20180;-82
2021/08/03 12:23:14;;;;;;;0.20;0.20;;;22.20;99.90;;;;;;5052560;28;20234;-82
2021/08/03 12:26:00;;;;;;;0.20;0.20;;;22.20;99.90;;;;;;5044138;28;20209;-82
2021/08/03 12:28:33;;;;;;;0.10;0.10;;;22.00;99.90;;;;;;5052372;28;20185;-82
2021/08/03 12:31:27;;;;;;;0.10;0.10;;;22.00;99.90;;;;;;5071973;28;20829;-82
2021/08/03 12:34:06;;;;;;;0.20;0.20;;;22.10;99.90;;;;;;5071195;28;20201;-82
2021/08/03 12:36:42;;;;;;;0.20;0.20;;;22.40;99.90;;;;;;5053563;28;20173;-82
2021/08/03 12:39:28;;;;;;;0.20;0.20;;;22.90;99.90;;;;;;5055574;28;20558;-85
2021/08/03 12:42:05;;;;;;;0.20;0.20;;;22.80;99.90;;;;;;5048007;28;20548;-84
2021/08/03 12:44:34;;;;;;;0.10;0.10;;;23.30;99.90;;;;;;5049061;28;20185;-83
2021/08/03 12:47:14;;;;;;;0.20;0.20;;;23.40;99.90;;;;;;5071002;28;20177;-85
2021/08/03 12:49:43;;;;;;;0.10;0.10;;;23.50;99.90;;;;;;5053122;28;20191;-85
2021/08/03 12:52:15;;;;;;;0.33;0.33;;;23.30;99.90;;;;;;5070566;28;20201;-85
2021/08/03 12:54:43;;;;;;;0.20;0.20;;;23.60;99.90;;;;;;5069929;28;20684;-85
2021/08/03 12:57:12;;;;;;;0.10;0.10;;;23.40;99.90;;;;;;5052748;28;20188;-86
2021/08/03 12:59:43;;;;;;;0.10;0.10;;;23.70;99.90;;;;;;5053260;28;20229;-83